CCGS Sir Wilfrid Laurier — CGJK — position and weather

sailwx.info

Track history (hours):
 
Tides and Currents Weather Stations Pressure Air Temp Water Temp Dewpoint Dewpoint Depression Visibility Wind Speed Wind Dir Waves Ship Positions

Oceanographic research ship CCGS Sir Wilfrid Laurier (Canada)

Detailed information on ship capabilities available from ARCUS's ALIAS (Arctic Logistics Information and Support) project.

Last reported at 2017-Aug-20 03:00 UTC. Time now 2017-Aug-20 04:06 UTC.
Position N 69°00' W 095°06'.

Length 83 m; beam 16.2 m; draft 6 m.

Type: SAR. MMSI: 316052000.

Wind from 100 at 11 knots

Barometer 1011.5 mb
Air temperature 9.7 ° C
Dewpoint 6.8 ° C
Water temperature 8.0 ° C

Date/timePositionNaut miles runAvg speedWind from/ knotsBaromVisibWave heightAir tempDewpointWater temp
2017-Aug-20 03:00N 69°00' W 095°06'0 0.0 100 / 111011.5 9.7 6.8 8.0
2017-Aug-20 02:00N 69°00' W 095°06'6 6.0 100 / 141011.2 10.6 6.6 8.2
2017-Aug-20 01:00N 68°54' W 095°06'0 0.0 120 / 141011.2 12.6 5.8 8.4
2017-Aug-20 00:00N 68°54' W 095°06'1212.2 120 / 121011.1 12.6 5.4 8.1
2017-Aug-19 23:00N 69°06' W 095°00'6 6.4 100 / 121011.3 12.0 4.6 8.3
2017-Aug-19 22:00N 69°00' W 095°06'6 6.0 100 / 111011.4 10.2 6.0 8.4
2017-Aug-19 21:00N 68°54' W 095°06'1212.0 120 / 111011.4 11.3 4.6 8.4
2017-Aug-19 20:00N 69°06' W 095°06'0 0.0 100 / 121011.5 10.0 3.7
2017-Aug-19 19:00N 69°06' W 095°06'1212.0 100 / 101011.3 9.4 4.8 8.2
2017-Aug-19 18:00N 68°54' W 095°06'1212.0 130 / 121011.1 9.5 4.6 8.1
2017-Aug-19 17:00N 69°06' W 095°06'1212.0 090 / 121011.4 8.7 4.7 7.9
2017-Aug-19 16:00N 68°54' W 095°06'2 2.2 110 / 121011.2 8.8 4.6 8.0
2017-Aug-19 15:00N 68°54' W 095°00'0 0.0 130 / 141011.1 8.5 3.7 7.9
2017-Aug-19 14:00N 68°54' W 095°00'1212.0 110 / 121011.2 7.7 4.8 8.0
2017-Aug-19 13:00N 69°06' W 095°00'1212.0 090 / 131011.1 7.7 5.0 8.1
2017-Aug-19 12:00N 68°54' W 095°00'1212.0 100 / 131010.8 8.0 5.1 7.9
2017-Aug-19 11:00N 69°06' W 095°00'6 6.0 090 / 121010.9 7.6 4.9 7.9
2017-Aug-19 10:00N 69°00' W 095°00'1212.2 110 / 111010.8 8.2 5.2 8.2
2017-Aug-19 09:00N 68°48' W 095°06'6 6.0 120 / 131010.4 8.8 6.2 8.6
2017-Aug-19 08:00N 68°42' W 095°06'1110.6 120 / 151010.0 9.3 6.8 8.7
2017-Aug-19 07:00N 68°36' W 095°30'9 8.9 110 / 141009.7 9.4 7.6 8.7
2017-Aug-19 06:00N 68°30' W 095°48'1110.7 100 / 141009.6 10.1 7.2 8.9
2017-Aug-19 05:00N 68°24' W 096°12'7 6.6 070 / 161009.5 10.5 6.8 8.7
2017-Aug-19 04:00N 68°24' W 096°30'1110.7 070 / 151009.5 9.8 6.8 8.8
2017-Aug-19 03:00N 68°30' W 096°54'9 8.8 100 / 141009.5 9.6 6.0 8.9
2017-Aug-19 02:00N 68°30' W 097°18'2 2.2 110 / 141009.5 9.8 7.8 8.7
2017-Aug-19 01:00N 68°30' W 097°24'0 0.0 120 / 141009.6 10.0 7.7 8.7
2017-Aug-19 00:00N 68°30' W 097°24'2 2.2 120 / 151009.5 10.2 7.2 8.7
2017-Aug-18 23:00N 68°30' W 097°30'0 0.0 120 / 141009.4 10.2 7.2 8.7
2017-Aug-18 22:00N 68°30' W 097°30'0 0.0 120 / 151009.6 10.4 7.4 8.1
2017-Aug-18 21:00N 68°30' W 097°30'6 6.4 120 / 151009.5 10.6 7.3 8.5
2017-Aug-18 20:00N 68°36' W 097°36'2 2.2 120 / 141009.4 11.0 7.2 8.6
2017-Aug-18 19:00N 68°36' W 097°42'0 0.0 170 / 101009.6 12.2 6.5
2017-Aug-18 18:00N 68°36' W 097°42'0 0.0 160 / 91009.5 12.0 6.7
2017-Aug-18 17:00N 68°36' W 097°42'0 0.0 150 / 121009.5 11.2 7.2
2017-Aug-18 16:00N 68°36' W 097°42'0 0.0 150 / 111009.6 10.5 7.8
2017-Aug-18 15:00N 68°36' W 097°42'0 0.0 150 / 101009.6 9.1 7.5
2017-Aug-18 14:00N 68°36' W 097°42'0 0.0 160 / 111009.6 8.2 6.9
2017-Aug-18 13:00N 68°36' W 097°42'0 0.0 160 / 101009.8 7.9 6.5
2017-Aug-18 12:00N 68°36' W 097°42'0 0.0 150 / 101009.6 8.0 6.6
2017-Aug-18 11:00N 68°36' W 097°42'0 0.0 160 / 101009.7 7.8 6.5
2017-Aug-18 10:00N 68°36' W 097°42'0 0.0 160 / 121009.8 7.9 6.6
2017-Aug-18 09:00N 68°36' W 097°42'0 0.0 150 / 121009.8 8.1 6.9
2017-Aug-18 08:00N 68°36' W 097°42'0 0.0 150 / 131009.7 8.1 7.0
2017-Aug-18 07:00N 68°36' W 097°42'0 0.0 150 / 121009.6 8.1 7.1
2017-Aug-18 06:00N 68°36' W 097°42'0 0.0 150 / 111009.8 8.1 7.1
2017-Aug-18 05:00N 68°36' W 097°42'0 0.0 140 / 151009.8 8.3 7.2
2017-Aug-18 04:00N 68°36' W 097°42'0 0.0 130 / 181009.6 8.5 7.0
2017-Aug-18 03:00N 68°36' W 097°42'0 0.0 120 / 161009.8 9.5 7.4
2017-Aug-18 02:00N 68°36' W 097°42'0 0.0 130 / 141009.8 10.5 7.7
2017-Aug-18 01:00N 68°36' W 097°42'0 0.0 150 / 81010.1 10.9 7.6
2017-Aug-18 00:00N 68°36' W 097°42'0 0.0 160 / 81010.2 11.2 7.4
2017-Aug-17 23:00N 68°36' W 097°42'0 0.0 140 / 151010.3 11.1 7.4
2017-Aug-17 22:00N 68°36' W 097°42'0 0.0 130 / 181010.3 10.8 7.3
2017-Aug-17 21:00N 68°36' W 097°42'0 0.0 140 / 151010.4 10.7 7.6
2017-Aug-17 20:00N 68°36' W 097°42'0 0.0 160 / 141010.2 10.8 7.5
2017-Aug-17 19:00N 68°36' W 097°42'0 0.0 140 / 191010.3 10.6 7.5
2017-Aug-17 18:00N 68°36' W 097°42'0 0.0 130 / 191010.3 10.3 7.9
2017-Aug-17 17:00N 68°36' W 097°42'0 0.0 130 / 171010.6 9.4 7.9
2017-Aug-17 16:00N 68°36' W 097°42'0 0.0 130 / 191010.5 9.2 7.5
2017-Aug-17 15:00N 68°36' W 097°42'0 0.0 130 / 171010.8 8.9 7.3
2017-Aug-17 14:00N 68°36' W 097°42'0 0.0 140 / 141011.2 7.9 7.1
2017-Aug-17 13:00N 68°36' W 097°42'0 0.0 140 / 151011.2 7.7 6.9
2017-Aug-17 12:00N 68°36' W 097°42'0 0.0 130 / 151011.4 7.4 6.7
2017-Aug-17 11:00N 68°36' W 097°42'0 0.0 130 / 141011.4 7.2 6.5
2017-Aug-17 10:00N 68°36' W 097°42'0 0.0 130 / 141011.5 7.2 6.3
2017-Aug-17 09:00N 68°36' W 097°42'0 0.0 130 / 141011.7 7.3 6.2
2017-Aug-17 08:00N 68°36' W 097°42'0 0.0 130 / 141011.9 7.2 6.1
2017-Aug-17 07:00N 68°36' W 097°42'0 0.0 130 / 141011.9 7.3 6.1
2017-Aug-17 06:00N 68°36' W 097°42'0 0.0 140 / 131011.8 7.8 6.4
2017-Aug-17 05:00N 68°36' W 097°42'0 0.0 130 / 141012.0 7.8 6.3
2017-Aug-17 04:00N 68°36' W 097°42'0 0.0 120 / 151012.0 8.0 6.1
2017-Aug-17 03:00N 68°36' W 097°42'0 0.0 120 / 141012.0 8.3 6.1
2017-Aug-17 02:00N 68°36' W 097°42'0 0.0 110 / 151012.2 9.2 6.1
2017-Aug-17 01:00N 68°36' W 097°42'2 2.2 110 / 181012.1 9.9 6.0 7.7
2017-Aug-17 00:00N 68°36' W 097°48'0 0.0 110 / 141012.4 9.9 6.1 7.7
2017-Aug-16 23:00N 68°36' W 097°48'2 2.2 120 / 171012.6 10.3 6.3 7.7
2017-Aug-16 22:00N 68°36' W 097°42'4 4.4 110 / 191013.2 9.0 6.0 8.0
2017-Aug-16 21:00N 68°36' W 097°30'0 0.0 110 / 201012.9 8.2 6.0 8.1
2017-Aug-16 20:00N 68°36' W 097°30'6 6.4 120 / 161013.4 7.8 5.9 8.0
2017-Aug-16 19:00N 68°30' W 097°24'0 0.0 120 / 201013.4 7.4 5.5 8.2
2017-Aug-16 18:00N 68°30' W 097°24'0 0.0 120 / 201013.5 7.2 5.2 8.1
2017-Aug-16 17:00N 68°30' W 097°24'9 8.9 110 / 211013.6 7.1 4.7 7.8
2017-Aug-16 16:00N 68°36' W 097°42'0 0.0 120 / 211013.5 7.3 4.2 7.3
2017-Aug-16 15:00N 68°36' W 097°42'2 2.2 110 / 201013.6 6.9 3.6
2017-Aug-16 14:00N 68°36' W 097°48'0 0.0 100 / 191013.8 6.1 3.9
2017-Aug-16 13:00N 68°36' W 097°48'0 0.0 100 / 181014.2 5.3 3.4
2017-Aug-16 12:00N 68°36' W 097°48'0 0.0 090 / 171014.4 4.8 3.5
2017-Aug-16 11:00N 68°36' W 097°48'0 0.0 090 / 161014.6 4.5 3.2
2017-Aug-16 10:00N 68°36' W 097°48'0 0.0 090 / 161014.8 4.1 2.8
2017-Aug-16 09:00N 68°36' W 097°48'0 0.0 090 / 151015.2 4.3 2.8
2017-Aug-16 08:00N 68°36' W 097°48'0 0.0 090 / 161015.0 4.5 2.6
2017-Aug-16 07:00N 68°36' W 097°48'0 0.0 100 / 161015.0 4.9 2.6
2017-Aug-16 06:00N 68°36' W 097°48'0 0.0 090 / 171014.9 5.3 2.6
2017-Aug-16 05:00N 68°36' W 097°48'0 0.0 090 / 161014.8 5.5 3.4
2017-Aug-16 04:00N 68°36' W 097°48'0 0.0 080 / 161015.1 5.6 3.2
2017-Aug-16 03:00N 68°36' W 097°48'0 0.0 080 / 151015.3 5.9 3.2
2017-Aug-16 02:00N 68°36' W 097°48'0 0.0 080 / 141015.5 6.5 3.1
2017-Aug-16 01:00N 68°36' W 097°48'0 0.0 090 / 161015.3 7.0 2.5
2017-Aug-16 00:00N 68°36' W 097°48'0 0.0 090 / 161015.3 7.5 2.0
2017-Aug-15 23:00N 68°36' W 097°48'0 0.0 090 / 151015.3 7.9 2.4
2017-Aug-15 22:00N 68°36' W 097°48'0 0.0 080 / 171015.2 8.2 1.8
2017-Aug-15 21:00N 68°36' W 097°48'0 0.0 080 / 171015.4 8.5 1.0
2017-Aug-15 20:00N 68°36' W 097°48'0 0.0 080 / 151015.4 8.4 1.1
2017-Aug-15 19:00N 68°36' W 097°48'0 0.0 080 / 171015.3 8.0 1.7
2017-Aug-15 18:00N 68°36' W 097°48'0 0.0 080 / 151015.2 7.5 1.8
2017-Aug-15 17:00N 68°36' W 097°48'0 0.0 070 / 171015.1 7.0 1.8
2017-Aug-15 16:00N 68°36' W 097°48'0 0.0 080 / 191014.7 6.1 1.9
2017-Aug-15 15:00N 68°36' W 097°48'0 0.0 080 / 191014.9 5.8 0.8
2017-Aug-15 14:00N 68°36' W 097°48'0 0.0 090 / 171014.9 5.6 0.8
2017-Aug-15 13:00N 68°36' W 097°48'2 2.2 080 / 131014.4 5.2 2.9
2017-Aug-15 12:00N 68°36' W 097°42'2 2.2 060 / 81014.6 4.6 2.7
2017-Aug-15 11:00N 68°36' W 097°48'2 2.2 070 / 111014.4 4.4 2.2
2017-Aug-15 10:00N 68°36' W 097°42'0 0.0 070 / 81014.2 4.8 1.5
2017-Aug-15 09:00N 68°36' W 097°42'0 0.0 080 / 111014.0 5.4 1.7
2017-Aug-15 08:00N 68°36' W 097°42'0 0.0 080 / 81013.5 5.9 2.9
2017-Aug-15 07:00N 68°36' W 097°42'0 0.0 080 / 81013.1 6.3 3.9
2017-Aug-15 06:00N 68°36' W 097°42'0 0.0 070 / 71012.8 6.1 4.8
2017-Aug-15 05:00N 68°36' W 097°42'0 0.0 050 / 91012.3 6.7 4.6 8.0
2017-Aug-15 04:00N 68°36' W 097°42'0 0.0 050 / 101011.7 7.5 5.0 7.9
2017-Aug-15 03:00N 68°36' W 097°42'7 7.4 020 / 51011.6 8.4 6.0 7.7
2017-Aug-15 02:00N 68°42' W 097°54'1212.5 040 / 131010.9 9.7 6.4 8.0
2017-Aug-15 01:00N 68°36' W 098°24'9 8.8 030 / 171010.6 8.7 5.2 7.8
2017-Aug-15 00:00N 68°36' W 098°48'9 8.8 030 / 191010.3 8.7 5.0 7.5
2017-Aug-14 23:00N 68°36' W 099°12'2 2.2 360 / 141010.2 5.5 3.5 5.8
2017-Aug-14 22:00N 68°36' W 099°18'0 0.0 020 / 191009.8 5.4 3.3 5.7
2017-Aug-14 21:00N 68°36' W 099°18'7 6.6 020 / 211008.9 5.1 2.7 6.0
2017-Aug-14 20:00N 68°36' W 099°36'2 2.2 020 / 221008.9 5.0 2.8 5.4
2017-Aug-14 19:00N 68°36' W 099°42'9 8.9 010 / 261007.7 3.8 2.9 6.2
2017-Aug-14 18:00N 68°30' W 100°00'9 8.9 360 / 221007.7 3.2 3.0 6.0
2017-Aug-14 17:00N 68°24' W 100°18'9 8.9 010 / 281007.3 3.9 3.8 7.1
2017-Aug-14 16:00N 68°18' W 100°36'9 8.9 010 / 231007.4 4.7 4.6 7.6
2017-Aug-14 15:00N 68°18' W 101°00'4 4.4 350 / 151007.8 4.9 4.8 7.6
2017-Aug-14 14:00N 68°18' W 101°12'9 8.9 020 / 251007.1 5.2 5.0 7.5
2017-Aug-14 13:00N 68°24' W 101°30'1110.7 360 / 171006.9 4.7 4.7 6.5
2017-Aug-14 12:00N 68°30' W 101°54'9 8.8 010 / 181006.9 5.2 5.0 7.5
2017-Aug-14 11:00N 68°30' W 102°18'1110.6 360 / 171006.2 5.4 5.4 7.5
2017-Aug-14 10:00N 68°36' W 102°42'1110.6 360 / 161005.6 5.7 5.7 7.1
2017-Aug-14 09:00N 68°42' W 103°06'9 8.7 030 / 181004.9 6.7 6.7 7.2
2017-Aug-14 08:00N 68°42' W 103°30'7 6.5 030 / 191004.9 6.9 6.9 6.8
2017-Aug-14 07:00N 68°42' W 103°48'1110.9 040 / 161004.4 7.4 7.4 8.6
2017-Aug-14 06:00N 68°42' W 104°18'1110.6 040 / 201003.7 8.5 8.4 8.0
2017-Aug-14 05:00N 68°48' W 104°42'9 8.7 050 / 211003.3 9.6 9.3 8.3
2017-Aug-14 04:00N 68°48' W 105°06'7 7.4 010 / 141002.6 10.610.0 8.8
2017-Aug-14 03:00N 68°54' W 105°18'7 7.4 030 / 191002.6 10.6 9.9 9.3
2017-Aug-14 02:00N 69°00' W 105°06'6 6.4 040 / 201002.0 13.711.9 9.6
2017-Aug-14 01:00N 69°06' W 105°00'2 2.1 350 / 101001.3 15.111.710.1
2017-Aug-14 00:00N 69°06' W 105°06'0 0.0 040 / 191000.6 17.113.0
2017-Aug-13 23:00N 69°06' W 105°06'0 0.0 310 / 31000.1 22.314.1
2017-Aug-13 22:00N 69°06' W 105°06'0 0.0 300 / 7999.8 21.613.5
2017-Aug-13 21:00N 69°06' W 105°06'0 0.0 250 / 6999.7 18.613.1
2017-Aug-13 20:00N 69°06' W 105°06'0 0.0 230 / 6999.4 18.913.0
2017-Aug-13 19:00N 69°06' W 105°06'0 0.0 250 / 5999.5 18.513.4
2017-Aug-13 18:00N 69°06' W 105°06'0 0.0 220 / 5999.4 17.313.3
2017-Aug-13 17:00N 69°06' W 105°06'0 0.0 200 / 6999.4 17.513.6
2017-Aug-13 16:00N 69°06' W 105°06'0 0.0 240 / 2999.4 17.513.7
2017-Aug-13 15:00N 69°06' W 105°06'0 0.0 190 / 7999.0 16.913.3
2017-Aug-13 14:00N 69°06' W 105°06'0 0.0 170 / 9999.4 14.912.5
2017-Aug-13 13:00N 69°06' W 105°06'0 0.0 210 / 51000.0 15.612.8
2017-Aug-13 12:00N 69°06' W 105°06'0 0.0 150 / 10999.5 14.111.8
2017-Aug-13 11:00N 69°06' W 105°06'0 0.0 150 / 8999.4 14.011.7
2017-Aug-13 10:00N 69°06' W 105°06'0 0.0 140 / 12999.6 14.612.2
2017-Aug-13 09:00N 69°06' W 105°06'0 0.0 140 / 161000.0 16.413.0
2017-Aug-13 08:00N 69°06' W 105°06'0 0.0 130 / 151000.4 16.113.2
2017-Aug-13 07:00N 69°06' W 105°06'0 0.0 130 / 151000.9 16.713.3
2017-Aug-13 06:00N 69°06' W 105°06'0 0.0 130 / 161001.1 16.013.3
2017-Aug-13 05:00N 69°06' W 105°06'0 0.0 130 / 161001.4 16.814.0
2017-Aug-13 04:00N 69°06' W 105°06'0 0.0 130 / 151001.8 17.414.7
2017-Aug-13 03:00N 69°06' W 105°06'0 0.0 130 / 151002.0 17.714.8
2017-Aug-13 02:00N 69°06' W 105°06'0 0.0 130 / 141002.5 18.514.7
2017-Aug-13 01:00N 69°06' W 105°06'0 0.0 130 / 161002.6 18.614.1
2017-Aug-13 00:00N 69°06' W 105°06'0 0.0 140 / 121003.1 17.512.8
2017-Aug-12 23:00N 69°06' W 105°06'0 0.0 140 / 121003.5 18.612.8
2017-Aug-12 22:00N 69°06' W 105°06'0 0.0 140 / 91003.8 18.212.4
2017-Aug-12 21:00N 69°06' W 105°06'0 0.0 130 / 141004.0 19.213.0
2017-Aug-12 20:00N 69°06' W 105°06'0 0.0 130 / 141004.3 19.213.1
2017-Aug-12 19:00N 69°06' W 105°06'0 0.0 150 / 141004.5 17.412.3
2017-Aug-12 18:00N 69°06' W 105°06'0 0.0 140 / 151004.9 17.312.5
2017-Aug-12 17:00N 69°06' W 105°06'0 0.0 130 / 161005.2 18.513.5
2017-Aug-12 16:00N 69°06' W 105°06'0 0.0 120 / 131005.8 17.513.6
2017-Aug-12 15:00N 69°06' W 105°06'0 0.0 130 / 111005.9 16.413.5
2017-Aug-12 14:00N 69°06' W 105°06'0 0.0 120 / 111006.2 15.713.4
2017-Aug-12 13:00N 69°06' W 105°06'0 0.0 100 / 61006.4 14.512.6
2017-Aug-12 12:00N 69°06' W 105°06'0 0.0 080 / 71006.5 13.311.9
2017-Aug-12 11:00N 69°06' W 105°06'0 0.0 080 / 71006.7 12.911.7
2017-Aug-12 10:00N 69°06' W 105°06'0 0.0 070 / 61007.0 13.112.0
2017-Aug-12 09:00N 69°06' W 105°06'0 0.0 080 / 71007.0 13.512.4
2017-Aug-12 08:00N 69°06' W 105°06'0 0.0 090 / 71007.3 13.412.2
2017-Aug-12 07:00N 69°06' W 105°06'0 0.0 100 / 61007.3 12.911.8
2017-Aug-12 06:00N 69°06' W 105°06'0 0.0 100 / 71007.3 13.611.4
2017-Aug-12 05:00N 69°06' W 105°06'0 0.0 130 / 61007.5 13.411.0
2017-Aug-12 04:00N 69°06' W 105°06'0 0.0 130 / 91007.2 14.110.9
2017-Aug-12 03:00N 69°06' W 105°06'0 0.0 130 / 131007.1 16.511.8
2017-Aug-12 02:00N 69°06' W 105°06'0 0.0 110 / 91007.3 19.312.6
2017-Aug-12 01:00N 69°06' W 105°06'0 0.0 140 / 81007.6 20.012.8 8.8
2017-Aug-11 23:00N 69°06' W 105°06'2 2.1 150 / 81007.7 20.012.5 8.6
2017-Aug-11 22:00N 69°06' W 105°00'6 6.4 150 / 101008.0 19.812.4 8.4
2017-Aug-11 21:00N 69°00' W 105°06'2 2.2 170 / 111008.1 16.812.2 7.4
2017-Aug-11 20:00N 69°00' W 105°12'0 0.0 090 / 61007.8 18.912.6
2017-Aug-11 18:00N 69°00' W 105°12'0 0.0 060 / 31008.5 15.211.6
2017-Aug-11 17:00N 69°00' W 105°12'0 0.0 030 / 61008.8 13.310.9 7.1
2017-Aug-11 16:00N 69°00' W 105°12'6 6.0 180 / 21008.8 12.110.0 7.0
2017-Aug-11 15:00N 69°06' W 105°12'1312.7 170 / 31009.2 11.8 9.7 6.6
2017-Aug-11 14:00N 68°54' W 105°24'1110.8 120 / 111008.4 8.6 7.6 7.2
2017-Aug-11 13:00N 68°54' W 105°54'1110.5 150 / 101008.3 10.5 9.1 9.4
2017-Aug-11 12:00N 69°00' W 106°18'1110.5 110 / 71008.5 9.9 8.9 9.7
2017-Aug-11 11:00N 68°54' W 106°42'9 8.6 110 / 61009.0 10.6 9.5 9.1
2017-Aug-11 10:00N 68°54' W 107°06'1110.5 010 / 61008.9 9.5 8.7 9.3
2017-Aug-11 09:00N 68°48' W 107°30'9 8.7 060 / 51008.8 11.1 9.8 9.9
2017-Aug-11 08:00N 68°48' W 107°54'1212.4 160 / 41009.0 14.711.710.0
2017-Aug-11 07:00N 68°42' W 108°24'9 8.7 080 / 31008.8 13.811.2 9.4
2017-Aug-11 06:00N 68°42' W 108°48'1212.5 060 / 81008.9 11.310.1 9.0
2017-Aug-11 05:00N 68°36' W 109°18'9 8.8 060 / 61008.9 12.710.7 8.6
2017-Aug-11 04:00N 68°36' W 109°42'1110.6 050 / 41009.1 13.610.7 8.0
2017-Aug-11 03:00N 68°30' W 110°06'1110.7 360 / 21009.3 12.4 9.9 7.5
2017-Aug-11 02:00N 68°24' W 110°30'9 8.8 300 / 21009.3 14.110.2 7.8
2017-Aug-11 01:00N 68°24' W 110°54'0 0.0 320 / 31009.8 13.0 9.3 6.4
2017-Aug-11 00:00N 68°24' W 110°54'0 0.0 210 / 11010.1 14.1 9.9
2017-Aug-10 23:00N 68°24' W 110°54'0 0.0 170 / 141009.9 12.6 9.5
2017-Aug-10 22:00N 68°24' W 110°54'0 0.0 160 / 171010.3 12.6 9.6
2017-Aug-10 21:00N 68°24' W 110°54'0 0.0 140 / 91010.9 10.3 8.6
2017-Aug-10 20:00N 68°24' W 110°54'0 0.0 120 / 121011.4 11.4 9.5
2017-Aug-10 19:00N 68°24' W 110°54'0 0.0 120 / 111011.9 11.4 9.4
2017-Aug-10 18:00N 68°24' W 110°54'0 0.0 120 / 91012.5 9.4 8.5
2017-Aug-10 17:00N 68°24' W 110°54'0 0.0 160 / 121012.9 9.8 8.6
2017-Aug-10 16:00N 68°24' W 110°54'0 0.0 170 / 121013.4 9.1 8.2 6.5
2017-Aug-10 15:00N 68°24' W 110°54'0 0.0 150 / 131013.8 9.1 8.1 6.6
2017-Aug-10 14:00N 68°24' W 110°54'2 2.2 140 / 121014.1 8.9 7.8 6.5
2017-Aug-10 13:00N 68°24' W 110°48'2 2.2 120 / 101014.7 8.5 7.5 7.3
2017-Aug-10 12:00N 68°24' W 110°54'4 4.4 110 / 121015.0 8.3 7.4 6.4
2017-Aug-10 11:00N 68°24' W 110°42'4 4.4 070 / 61015.4 8.6 7.7 7.6
2017-Aug-10 10:00N 68°24' W 110°54'0 0.0 090 / 61015.3 9.0 7.6 5.9
2017-Aug-10 09:00N 68°24' W 110°54'4 4.4 070 / 41015.4 9.7 7.6 7.1
2017-Aug-10 08:00N 68°24' W 110°42'9 8.9 060 / 51015.3 9.4 7.7 7.2
2017-Aug-10 07:00N 68°30' W 111°00'1110.7 080 / 51015.7 10.0 7.5 6.4
2017-Aug-10 06:00N 68°24' W 110°36'1110.7 140 / 51015.8 9.1 7.6 7.3
2017-Aug-10 05:00N 68°30' W 111°00'1312.5 110 / 101015.8 9.5 7.6 6.1
2017-Aug-10 04:00N 68°24' W 111°30'0 0.0 080 / 61016.1 9.2 8.2
2017-Aug-10 03:00N 68°24' W 111°30'   120 / 51016.1 8.9 8.2 6.5
Track history (hours):
 
Tides and Currents Weather Stations Pressure Air Temp Water Temp Dewpoint Dewpoint Depression Visibility Wind Speed Wind Dir Waves Ship Positions

Oceanographic research ship CCGS Sir Wilfrid Laurier (Canada)

Detailed information on ship capabilities available from ARCUS's ALIAS (Arctic Logistics Information and Support) project.

Last reported at 2017-Aug-20 03:00 UTC. Time now 2017-Aug-20 04:06 UTC.
Position N 69°00' W 095°06'.

Length 83 m; beam 16.2 m; draft 6 m.

Type: SAR. MMSI: 316052000.

Wind from 100 at 11 knots

Barometer 1011.5 mb
Air temperature 9.7 ° C
Dewpoint 6.8 ° C
Water temperature 8.0 ° C

Date/timePositionNaut miles runAvg speedWind from/ knotsBaromVisibWave heightAir tempDewpointWater temp
2017-Aug-20 03:00N 69°00' W 095°06'0 0.0 100 / 111011.5 9.7 6.8 8.0
2017-Aug-20 02:00N 69°00' W 095°06'6 6.0 100 / 141011.2 10.6 6.6 8.2
2017-Aug-20 01:00N 68°54' W 095°06'0 0.0 120 / 141011.2 12.6 5.8 8.4
2017-Aug-20 00:00N 68°54' W 095°06'1212.2 120 / 121011.1 12.6 5.4 8.1
2017-Aug-19 23:00N 69°06' W 095°00'6 6.4 100 / 121011.3 12.0 4.6 8.3
2017-Aug-19 22:00N 69°00' W 095°06'6 6.0 100 / 111011.4 10.2 6.0 8.4
2017-Aug-19 21:00N 68°54' W 095°06'1212.0 120 / 111011.4 11.3 4.6 8.4
2017-Aug-19 20:00N 69°06' W 095°06'0 0.0 100 / 121011.5 10.0 3.7
2017-Aug-19 19:00N 69°06' W 095°06'1212.0 100 / 101011.3 9.4 4.8 8.2
2017-Aug-19 18:00N 68°54' W 095°06'1212.0 130 / 121011.1 9.5 4.6 8.1
2017-Aug-19 17:00N 69°06' W 095°06'1212.0 090 / 121011.4 8.7 4.7 7.9
2017-Aug-19 16:00N 68°54' W 095°06'2 2.2 110 / 121011.2 8.8 4.6 8.0
2017-Aug-19 15:00N 68°54' W 095°00'0 0.0 130 / 141011.1 8.5 3.7 7.9
2017-Aug-19 14:00N 68°54' W 095°00'1212.0 110 / 121011.2 7.7 4.8 8.0
2017-Aug-19 13:00N 69°06' W 095°00'1212.0 090 / 131011.1 7.7 5.0 8.1
2017-Aug-19 12:00N 68°54' W 095°00'1212.0 100 / 131010.8 8.0 5.1 7.9
2017-Aug-19 11:00N 69°06' W 095°00'6 6.0 090 / 121010.9 7.6 4.9 7.9
2017-Aug-19 10:00N 69°00' W 095°00'1212.2 110 / 111010.8 8.2 5.2 8.2
2017-Aug-19 09:00N 68°48' W 095°06'6 6.0 120 / 131010.4 8.8 6.2 8.6
2017-Aug-19 08:00N 68°42' W 095°06'1110.6 120 / 151010.0 9.3 6.8 8.7
2017-Aug-19 07:00N 68°36' W 095°30'9 8.9 110 / 141009.7 9.4 7.6 8.7
2017-Aug-19 06:00N 68°30' W 095°48'1110.7 100 / 141009.6 10.1 7.2 8.9
2017-Aug-19 05:00N 68°24' W 096°12'7 6.6 070 / 161009.5 10.5 6.8 8.7
2017-Aug-19 04:00N 68°24' W 096°30'1110.7 070 / 151009.5 9.8 6.8 8.8
2017-Aug-19 03:00N 68°30' W 096°54'9 8.8 100 / 141009.5 9.6 6.0 8.9
2017-Aug-19 02:00N 68°30' W 097°18'2 2.2 110 / 141009.5 9.8 7.8 8.7
2017-Aug-19 01:00N 68°30' W 097°24'0 0.0 120 / 141009.6 10.0 7.7 8.7
2017-Aug-19 00:00N 68°30' W 097°24'2 2.2 120 / 151009.5 10.2 7.2 8.7
2017-Aug-18 23:00N 68°30' W 097°30'0 0.0 120 / 141009.4 10.2 7.2 8.7
2017-Aug-18 22:00N 68°30' W 097°30'0 0.0 120 / 151009.6 10.4 7.4 8.1
2017-Aug-18 21:00N 68°30' W 097°30'6 6.4 120 / 151009.5 10.6 7.3 8.5
2017-Aug-18 20:00N 68°36' W 097°36'2 2.2 120 / 141009.4 11.0 7.2 8.6
2017-Aug-18 19:00N 68°36' W 097°42'0 0.0 170 / 101009.6 12.2 6.5
2017-Aug-18 18:00N 68°36' W 097°42'0 0.0 160 / 91009.5 12.0 6.7
2017-Aug-18 17:00N 68°36' W 097°42'0 0.0 150 / 121009.5 11.2 7.2
2017-Aug-18 16:00N 68°36' W 097°42'0 0.0 150 / 111009.6 10.5 7.8
2017-Aug-18 15:00N 68°36' W 097°42'0 0.0 150 / 101009.6 9.1 7.5
2017-Aug-18 14:00N 68°36' W 097°42'0 0.0 160 / 111009.6 8.2 6.9
2017-Aug-18 13:00N 68°36' W 097°42'0 0.0 160 / 101009.8 7.9 6.5
2017-Aug-18 12:00N 68°36' W 097°42'0 0.0 150 / 101009.6 8.0 6.6
2017-Aug-18 11:00N 68°36' W 097°42'0 0.0 160 / 101009.7 7.8 6.5
2017-Aug-18 10:00N 68°36' W 097°42'0 0.0 160 / 121009.8 7.9 6.6
2017-Aug-18 09:00N 68°36' W 097°42'0 0.0 150 / 121009.8 8.1 6.9
2017-Aug-18 08:00N 68°36' W 097°42'0 0.0 150 / 131009.7 8.1 7.0
2017-Aug-18 07:00N 68°36' W 097°42'0 0.0 150 / 121009.6 8.1 7.1
2017-Aug-18 06:00N 68°36' W 097°42'0 0.0 150 / 111009.8 8.1 7.1
2017-Aug-18 05:00N 68°36' W 097°42'0 0.0 140 / 151009.8 8.3 7.2
2017-Aug-18 04:00N 68°36' W 097°42'0 0.0 130 / 181009.6 8.5 7.0
2017-Aug-18 03:00N 68°36' W 097°42'0 0.0 120 / 161009.8 9.5 7.4
2017-Aug-18 02:00N 68°36' W 097°42'0 0.0 130 / 141009.8 10.5 7.7
2017-Aug-18 01:00N 68°36' W 097°42'0 0.0 150 / 81010.1 10.9 7.6
2017-Aug-18 00:00N 68°36' W 097°42'0 0.0 160 / 81010.2 11.2 7.4
2017-Aug-17 23:00N 68°36' W 097°42'0 0.0 140 / 151010.3 11.1 7.4
2017-Aug-17 22:00N 68°36' W 097°42'0 0.0 130 / 181010.3 10.8 7.3
2017-Aug-17 21:00N 68°36' W 097°42'0 0.0 140 / 151010.4 10.7 7.6
2017-Aug-17 20:00N 68°36' W 097°42'0 0.0 160 / 141010.2 10.8 7.5
2017-Aug-17 19:00N 68°36' W 097°42'0 0.0 140 / 191010.3 10.6 7.5
2017-Aug-17 18:00N 68°36' W 097°42'0 0.0 130 / 191010.3 10.3 7.9
2017-Aug-17 17:00N 68°36' W 097°42'0 0.0 130 / 171010.6 9.4 7.9
2017-Aug-17 16:00N 68°36' W 097°42'0 0.0 130 / 191010.5 9.2 7.5
2017-Aug-17 15:00N 68°36' W 097°42'0 0.0 130 / 171010.8 8.9 7.3
2017-Aug-17 14:00N 68°36' W 097°42'0 0.0 140 / 141011.2 7.9 7.1
2017-Aug-17 13:00N 68°36' W 097°42'0 0.0 140 / 151011.2 7.7 6.9
2017-Aug-17 12:00N 68°36' W 097°42'0 0.0 130 / 151011.4 7.4 6.7
2017-Aug-17 11:00N 68°36' W 097°42'0 0.0 130 / 141011.4 7.2 6.5
2017-Aug-17 10:00N 68°36' W 097°42'0 0.0 130 / 141011.5 7.2 6.3
2017-Aug-17 09:00N 68°36' W 097°42'0 0.0 130 / 141011.7 7.3 6.2
2017-Aug-17 08:00N 68°36' W 097°42'0 0.0 130 / 141011.9 7.2 6.1
2017-Aug-17 07:00N 68°36' W 097°42'0 0.0 130 / 141011.9 7.3 6.1
2017-Aug-17 06:00N 68°36' W 097°42'0 0.0 140 / 131011.8 7.8 6.4
2017-Aug-17 05:00N 68°36' W 097°42'0 0.0 130 / 141012.0 7.8 6.3
2017-Aug-17 04:00N 68°36' W 097°42'0 0.0 120 / 151012.0 8.0 6.1
2017-Aug-17 03:00N 68°36' W 097°42'0 0.0 120 / 141012.0 8.3 6.1
2017-Aug-17 02:00N 68°36' W 097°42'0 0.0 110 / 151012.2 9.2 6.1
2017-Aug-17 01:00N 68°36' W 097°42'2 2.2 110 / 181012.1 9.9 6.0 7.7
2017-Aug-17 00:00N 68°36' W 097°48'0 0.0 110 / 141012.4 9.9 6.1 7.7
2017-Aug-16 23:00N 68°36' W 097°48'2 2.2 120 / 171012.6 10.3 6.3 7.7
2017-Aug-16 22:00N 68°36' W 097°42'4 4.4 110 / 191013.2 9.0 6.0 8.0
2017-Aug-16 21:00N 68°36' W 097°30'0 0.0 110 / 201012.9 8.2 6.0 8.1
2017-Aug-16 20:00N 68°36' W 097°30'6 6.4 120 / 161013.4 7.8 5.9 8.0
2017-Aug-16 19:00N 68°30' W 097°24'0 0.0 120 / 201013.4 7.4 5.5 8.2
2017-Aug-16 18:00N 68°30' W 097°24'0 0.0 120 / 201013.5 7.2 5.2 8.1
2017-Aug-16 17:00N 68°30' W 097°24'9 8.9 110 / 211013.6 7.1 4.7 7.8
2017-Aug-16 16:00N 68°36' W 097°42'0 0.0 120 / 211013.5 7.3 4.2 7.3
2017-Aug-16 15:00N 68°36' W 097°42'2 2.2 110 / 201013.6 6.9 3.6
2017-Aug-16 14:00N 68°36' W 097°48'0 0.0 100 / 191013.8 6.1 3.9
2017-Aug-16 13:00N 68°36' W 097°48'0 0.0 100 / 181014.2 5.3 3.4
2017-Aug-16 12:00N 68°36' W 097°48'0 0.0 090 / 171014.4 4.8 3.5
2017-Aug-16 11:00N 68°36' W 097°48'0 0.0 090 / 161014.6 4.5 3.2
2017-Aug-16 10:00N 68°36' W 097°48'0 0.0 090 / 161014.8 4.1 2.8
2017-Aug-16 09:00N 68°36' W 097°48'0 0.0 090 / 151015.2 4.3 2.8
2017-Aug-16 08:00N 68°36' W 097°48'0 0.0 090 / 161015.0 4.5 2.6
2017-Aug-16 07:00N 68°36' W 097°48'0 0.0 100 / 161015.0 4.9 2.6
2017-Aug-16 06:00N 68°36' W 097°48'0 0.0 090 / 171014.9 5.3 2.6
2017-Aug-16 05:00N 68°36' W 097°48'0 0.0 090 / 161014.8 5.5 3.4
2017-Aug-16 04:00N 68°36' W 097°48'0 0.0 080 / 161015.1 5.6 3.2
2017-Aug-16 03:00N 68°36' W 097°48'0 0.0 080 / 151015.3 5.9 3.2
2017-Aug-16 02:00N 68°36' W 097°48'0 0.0 080 / 141015.5 6.5 3.1
2017-Aug-16 01:00N 68°36' W 097°48'0 0.0 090 / 161015.3 7.0 2.5
2017-Aug-16 00:00N 68°36' W 097°48'0 0.0 090 / 161015.3 7.5 2.0
2017-Aug-15 23:00N 68°36' W 097°48'0 0.0 090 / 151015.3 7.9 2.4
2017-Aug-15 22:00N 68°36' W 097°48'0 0.0 080 / 171015.2 8.2 1.8
2017-Aug-15 21:00N 68°36' W 097°48'0 0.0 080 / 171015.4 8.5 1.0
2017-Aug-15 20:00N 68°36' W 097°48'0 0.0 080 / 151015.4 8.4 1.1
2017-Aug-15 19:00N 68°36' W 097°48'0 0.0 080 / 171015.3 8.0 1.7
2017-Aug-15 18:00N 68°36' W 097°48'0 0.0 080 / 151015.2 7.5 1.8
2017-Aug-15 17:00N 68°36' W 097°48'0 0.0 070 / 171015.1 7.0 1.8
2017-Aug-15 16:00N 68°36' W 097°48'0 0.0 080 / 191014.7 6.1 1.9
2017-Aug-15 15:00N 68°36' W 097°48'0 0.0 080 / 191014.9 5.8 0.8
2017-Aug-15 14:00N 68°36' W 097°48'0 0.0 090 / 171014.9 5.6 0.8
2017-Aug-15 13:00N 68°36' W 097°48'2 2.2 080 / 131014.4 5.2 2.9
2017-Aug-15 12:00N 68°36' W 097°42'2 2.2 060 / 81014.6 4.6 2.7
2017-Aug-15 11:00N 68°36' W 097°48'2 2.2 070 / 111014.4 4.4 2.2
2017-Aug-15 10:00N 68°36' W 097°42'0 0.0 070 / 81014.2 4.8 1.5
2017-Aug-15 09:00N 68°36' W 097°42'0 0.0 080 / 111014.0 5.4 1.7
2017-Aug-15 08:00N 68°36' W 097°42'0 0.0 080 / 81013.5 5.9 2.9
2017-Aug-15 07:00N 68°36' W 097°42'0 0.0 080 / 81013.1 6.3 3.9
2017-Aug-15 06:00N 68°36' W 097°42'0 0.0 070 / 71012.8 6.1 4.8
2017-Aug-15 05:00N 68°36' W 097°42'0 0.0 050 / 91012.3 6.7 4.6 8.0
2017-Aug-15 04:00N 68°36' W 097°42'0 0.0 050 / 101011.7 7.5 5.0 7.9
2017-Aug-15 03:00N 68°36' W 097°42'7 7.4 020 / 51011.6 8.4 6.0 7.7
2017-Aug-15 02:00N 68°42' W 097°54'1212.5 040 / 131010.9 9.7 6.4 8.0
2017-Aug-15 01:00N 68°36' W 098°24'9 8.8 030 / 171010.6 8.7 5.2 7.8
2017-Aug-15 00:00N 68°36' W 098°48'9 8.8 030 / 191010.3 8.7 5.0 7.5
2017-Aug-14 23:00N 68°36' W 099°12'2 2.2 360 / 141010.2 5.5 3.5 5.8
2017-Aug-14 22:00N 68°36' W 099°18'0 0.0 020 / 191009.8 5.4 3.3 5.7
2017-Aug-14 21:00N 68°36' W 099°18'7 6.6 020 / 211008.9 5.1 2.7 6.0
2017-Aug-14 20:00N 68°36' W 099°36'2 2.2 020 / 221008.9 5.0 2.8 5.4
2017-Aug-14 19:00N 68°36' W 099°42'9 8.9 010 / 261007.7 3.8 2.9 6.2
2017-Aug-14 18:00N 68°30' W 100°00'9 8.9 360 / 221007.7 3.2 3.0 6.0
2017-Aug-14 17:00N 68°24' W 100°18'9 8.9 010 / 281007.3 3.9 3.8 7.1
2017-Aug-14 16:00N 68°18' W 100°36'9 8.9 010 / 231007.4 4.7 4.6 7.6
2017-Aug-14 15:00N 68°18' W 101°00'4 4.4 350 / 151007.8 4.9 4.8 7.6
2017-Aug-14 14:00N 68°18' W 101°12'9 8.9 020 / 251007.1 5.2 5.0 7.5
2017-Aug-14 13:00N 68°24' W 101°30'1110.7 360 / 171006.9 4.7 4.7 6.5
2017-Aug-14 12:00N 68°30' W 101°54'9 8.8 010 / 181006.9 5.2 5.0 7.5
2017-Aug-14 11:00N 68°30' W 102°18'1110.6 360 / 171006.2 5.4 5.4 7.5
2017-Aug-14 10:00N 68°36' W 102°42'1110.6 360 / 161005.6 5.7 5.7 7.1
2017-Aug-14 09:00N 68°42' W 103°06'9 8.7 030 / 181004.9 6.7 6.7 7.2
2017-Aug-14 08:00N 68°42' W 103°30'7 6.5 030 / 191004.9 6.9 6.9 6.8
2017-Aug-14 07:00N 68°42' W 103°48'1110.9 040 / 161004.4 7.4 7.4 8.6
2017-Aug-14 06:00N 68°42' W 104°18'1110.6 040 / 201003.7 8.5 8.4 8.0
2017-Aug-14 05:00N 68°48' W 104°42'9 8.7 050 / 211003.3 9.6 9.3 8.3
2017-Aug-14 04:00N 68°48' W 105°06'7 7.4 010 / 141002.6 10.610.0 8.8
2017-Aug-14 03:00N 68°54' W 105°18'7 7.4 030 / 191002.6 10.6 9.9 9.3
2017-Aug-14 02:00N 69°00' W 105°06'6 6.4 040 / 201002.0 13.711.9 9.6
2017-Aug-14 01:00N 69°06' W 105°00'2 2.1 350 / 101001.3 15.111.710.1
2017-Aug-14 00:00N 69°06' W 105°06'0 0.0 040 / 191000.6 17.113.0
2017-Aug-13 23:00N 69°06' W 105°06'0 0.0 310 / 31000.1 22.314.1
2017-Aug-13 22:00N 69°06' W 105°06'0 0.0 300 / 7999.8 21.613.5
2017-Aug-13 21:00N 69°06' W 105°06'0 0.0 250 / 6999.7 18.613.1
2017-Aug-13 20:00N 69°06' W 105°06'0 0.0 230 / 6999.4 18.913.0
2017-Aug-13 19:00N 69°06' W 105°06'0 0.0 250 / 5999.5 18.513.4
2017-Aug-13 18:00N 69°06' W 105°06'0 0.0 220 / 5999.4 17.313.3
2017-Aug-13 17:00N 69°06' W 105°06'0 0.0 200 / 6999.4 17.513.6
2017-Aug-13 16:00N 69°06' W 105°06'0 0.0 240 / 2999.4 17.513.7
2017-Aug-13 15:00N 69°06' W 105°06'0 0.0 190 / 7999.0 16.913.3
2017-Aug-13 14:00N 69°06' W 105°06'0 0.0 170 / 9999.4 14.912.5
2017-Aug-13 13:00N 69°06' W 105°06'0 0.0 210 / 51000.0 15.612.8
2017-Aug-13 12:00N 69°06' W 105°06'0 0.0 150 / 10999.5 14.111.8
2017-Aug-13 11:00N 69°06' W 105°06'0 0.0 150 / 8999.4 14.011.7
2017-Aug-13 10:00N 69°06' W 105°06'0 0.0 140 / 12999.6 14.612.2
2017-Aug-13 09:00N 69°06' W 105°06'0 0.0 140 / 161000.0 16.413.0
2017-Aug-13 08:00N 69°06' W 105°06'0 0.0 130 / 151000.4 16.113.2
2017-Aug-13 07:00N 69°06' W 105°06'0 0.0 130 / 151000.9 16.713.3
2017-Aug-13 06:00N 69°06' W 105°06'0 0.0 130 / 161001.1 16.013.3
2017-Aug-13 05:00N 69°06' W 105°06'0 0.0 130 / 161001.4 16.814.0
2017-Aug-13 04:00N 69°06' W 105°06'0 0.0 130 / 151001.8 17.414.7
2017-Aug-13 03:00N 69°06' W 105°06'0 0.0 130 / 151002.0 17.714.8
2017-Aug-13 02:00N 69°06' W 105°06'0 0.0 130 / 141002.5 18.514.7
2017-Aug-13 01:00N 69°06' W 105°06'0 0.0 130 / 161002.6 18.614.1
2017-Aug-13 00:00N 69°06' W 105°06'0 0.0 140 / 121003.1 17.512.8
2017-Aug-12 23:00N 69°06' W 105°06'0 0.0 140 / 121003.5 18.612.8
2017-Aug-12 22:00N 69°06' W 105°06'0 0.0 140 / 91003.8 18.212.4
2017-Aug-12 21:00N 69°06' W 105°06'0 0.0 130 / 141004.0 19.213.0
2017-Aug-12 20:00N 69°06' W 105°06'0 0.0 130 / 141004.3 19.213.1
2017-Aug-12 19:00N 69°06' W 105°06'0 0.0 150 / 141004.5 17.412.3
2017-Aug-12 18:00N 69°06' W 105°06'0 0.0 140 / 151004.9 17.312.5
2017-Aug-12 17:00N 69°06' W 105°06'0 0.0 130 / 161005.2 18.513.5
2017-Aug-12 16:00N 69°06' W 105°06'0 0.0 120 / 131005.8 17.513.6
2017-Aug-12 15:00N 69°06' W 105°06'0 0.0 130 / 111005.9 16.413.5
2017-Aug-12 14:00N 69°06' W 105°06'0 0.0 120 / 111006.2 15.713.4
2017-Aug-12 13:00N 69°06' W 105°06'0 0.0 100 / 61006.4 14.512.6
2017-Aug-12 12:00N 69°06' W 105°06'0 0.0 080 / 71006.5 13.311.9
2017-Aug-12 11:00N 69°06' W 105°06'0 0.0 080 / 71006.7 12.911.7
2017-Aug-12 10:00N 69°06' W 105°06'0 0.0 070 / 61007.0 13.112.0
2017-Aug-12 09:00N 69°06' W 105°06'0 0.0 080 / 71007.0 13.512.4
2017-Aug-12 08:00N 69°06' W 105°06'0 0.0 090 / 71007.3 13.412.2
2017-Aug-12 07:00N 69°06' W 105°06'0 0.0 100 / 61007.3 12.911.8
2017-Aug-12 06:00N 69°06' W 105°06'0 0.0 100 / 71007.3 13.611.4
2017-Aug-12 05:00N 69°06' W 105°06'0 0.0 130 / 61007.5 13.411.0
2017-Aug-12 04:00N 69°06' W 105°06'0 0.0 130 / 91007.2 14.110.9
2017-Aug-12 03:00N 69°06' W 105°06'0 0.0 130 / 131007.1 16.511.8
2017-Aug-12 02:00N 69°06' W 105°06'0 0.0 110 / 91007.3 19.312.6
2017-Aug-12 01:00N 69°06' W 105°06'0 0.0 140 / 81007.6 20.012.8 8.8
2017-Aug-11 23:00N 69°06' W 105°06'2 2.1 150 / 81007.7 20.012.5 8.6
2017-Aug-11 22:00N 69°06' W 105°00'6 6.4 150 / 101008.0 19.812.4 8.4
2017-Aug-11 21:00N 69°00' W 105°06'2 2.2 170 / 111008.1 16.812.2 7.4
2017-Aug-11 20:00N 69°00' W 105°12'0 0.0 090 / 61007.8 18.912.6
2017-Aug-11 18:00N 69°00' W 105°12'0 0.0 060 / 31008.5 15.211.6
2017-Aug-11 17:00N 69°00' W 105°12'0 0.0 030 / 61008.8 13.310.9 7.1
2017-Aug-11 16:00N 69°00' W 105°12'6 6.0 180 / 21008.8 12.110.0 7.0
2017-Aug-11 15:00N 69°06' W 105°12'1312.7 170 / 31009.2 11.8 9.7 6.6
2017-Aug-11 14:00N 68°54' W 105°24'1110.8 120 / 111008.4 8.6 7.6 7.2
2017-Aug-11 13:00N 68°54' W 105°54'1110.5 150 / 101008.3 10.5 9.1 9.4
2017-Aug-11 12:00N 69°00' W 106°18'1110.5 110 / 71008.5 9.9 8.9 9.7
2017-Aug-11 11:00N 68°54' W 106°42'9 8.6 110 / 61009.0 10.6 9.5 9.1
2017-Aug-11 10:00N 68°54' W 107°06'1110.5 010 / 61008.9 9.5 8.7 9.3
2017-Aug-11 09:00N 68°48' W 107°30'9 8.7 060 / 51008.8 11.1 9.8 9.9
2017-Aug-11 08:00N 68°48' W 107°54'1212.4 160 / 41009.0 14.711.710.0
2017-Aug-11 07:00N 68°42' W 108°24'9 8.7 080 / 31008.8 13.811.2 9.4
2017-Aug-11 06:00N 68°42' W 108°48'1212.5 060 / 81008.9 11.310.1 9.0
2017-Aug-11 05:00N 68°36' W 109°18'9 8.8 060 / 61008.9 12.710.7 8.6
2017-Aug-11 04:00N 68°36' W 109°42'1110.6 050 / 41009.1 13.610.7 8.0
2017-Aug-11 03:00N 68°30' W 110°06'1110.7 360 / 21009.3 12.4 9.9 7.5
2017-Aug-11 02:00N 68°24' W 110°30'9 8.8 300 / 21009.3 14.110.2 7.8
2017-Aug-11 01:00N 68°24' W 110°54'0 0.0 320 / 31009.8 13.0 9.3 6.4
2017-Aug-11 00:00N 68°24' W 110°54'0 0.0 210 / 11010.1 14.1 9.9
2017-Aug-10 23:00N 68°24' W 110°54'0 0.0 170 / 141009.9 12.6 9.5
2017-Aug-10 22:00N 68°24' W 110°54'0 0.0 160 / 171010.3 12.6 9.6
2017-Aug-10 21:00N 68°24' W 110°54'0 0.0 140 / 91010.9 10.3 8.6
2017-Aug-10 20:00N 68°24' W 110°54'0 0.0 120 / 121011.4 11.4 9.5
2017-Aug-10 19:00N 68°24' W 110°54'0 0.0 120 / 111011.9 11.4 9.4
2017-Aug-10 18:00N 68°24' W 110°54'0 0.0 120 / 91012.5 9.4 8.5
2017-Aug-10 17:00N 68°24' W 110°54'0 0.0 160 / 121012.9 9.8 8.6
2017-Aug-10 16:00N 68°24' W 110°54'0 0.0 170 / 121013.4 9.1 8.2 6.5
2017-Aug-10 15:00N 68°24' W 110°54'0 0.0 150 / 131013.8 9.1 8.1 6.6
2017-Aug-10 14:00N 68°24' W 110°54'2 2.2 140 / 121014.1 8.9 7.8 6.5
2017-Aug-10 13:00N 68°24' W 110°48'2 2.2 120 / 101014.7 8.5 7.5 7.3
2017-Aug-10 12:00N 68°24' W 110°54'4 4.4 110 / 121015.0 8.3 7.4 6.4
2017-Aug-10 11:00N 68°24' W 110°42'4 4.4 070 / 61015.4 8.6 7.7 7.6
2017-Aug-10 10:00N 68°24' W 110°54'0 0.0 090 / 61015.3 9.0 7.6 5.9
2017-Aug-10 09:00N 68°24' W 110°54'4 4.4 070 / 41015.4 9.7 7.6 7.1
2017-Aug-10 08:00N 68°24' W 110°42'9 8.9 060 / 51015.3 9.4 7.7 7.2
2017-Aug-10 07:00N 68°30' W 111°00'1110.7 080 / 51015.7 10.0 7.5 6.4
2017-Aug-10 06:00N 68°24' W 110°36'1110.7 140 / 51015.8 9.1 7.6 7.3
2017-Aug-10 05:00N 68°30' W 111°00'1312.5 110 / 101015.8 9.5 7.6 6.1
2017-Aug-10 04:00N 68°24' W 111°30'0 0.0 080 / 61016.1 9.2 8.2
2017-Aug-10 03:00N 68°24' W 111°30'   120 / 51016.1 8.9 8.2 6.5

Dump ship's entire track history